Time;durP1;ratioP1;P1;durP2;ratioP2;P2;SDS_P1;SDS_P2;PMS_P1;PMS_P2;Temp;Humidity;BMP_temperature;BMP_pressure;BME280_temperature;BME280_humidity;BME280_pressure;Samples;Min_cycle;Max_cycle;Signal;HPM_P1;HPM_P2
2022/03/03 00:02:32;;;;;;;0.00;0.00;;;;;;;17.40;nan;102005.63;10590965;27;20050;-82
2022/03/03 00:07:34;;;;;;;0.00;0.00;;;;;;;17.08;nan;102004.28;10548666;27;20039;-82
2022/03/03 00:13:14;;;;;;;0.00;0.00;;;;;;;15.57;nan;102009.91;10546758;28;20089;-83
2022/03/03 00:18:23;;;;;;;0.00;0.00;;;;;;;14.43;nan;102020.84;10533700;27;20054;-82
2022/03/03 00:23:24;;;;;;;0.00;0.00;;;;;;;14.32;nan;102028.34;10544679;27;20042;-83
2022/03/03 00:28:26;;;;;;;0.00;0.00;;;;;;;15.59;nan;102009.97;10564821;27;20052;-82
2022/03/03 00:33:28;;;;;;;0.00;0.00;;;;;;;16.84;nan;101993.41;10560213;27;20035;-82
2022/03/03 00:38:31;;;;;;;0.00;0.00;;;;;;;15.97;nan;102002.19;10564573;27;20048;-82
2022/03/03 00:43:33;;;;;;;0.35;0.35;;;;;;;14.95;nan;102008.44;10553765;27;20410;-82
2022/03/03 00:48:35;;;;;;;0.00;0.00;;;;;;;16.36;nan;102006.41;10557292;28;20485;-82
2022/03/03 00:53:37;;;;;;;0.00;0.00;;;;;;;16.88;nan;102008.22;10558243;27;20040;-82
2022/03/03 00:58:39;;;;;;;0.17;0.15;;;;;;;15.33;nan;101999.84;10572094;27;20409;-82
2022/03/03 01:03:41;;;;;;;0.00;0.00;;;;;;;15.54;nan;102002.06;10539386;28;20048;-82
2022/03/03 01:08:44;;;;;;;0.10;0.10;;;;;;;16.94;nan;101995.38;10580591;28;20049;-83
2022/03/03 01:13:46;;;;;;;0.00;0.00;;;;;;;17.02;nan;101993.75;10597400;27;20047;-83
2022/03/03 01:18:48;;;;;;;0.00;0.00;;;;;;;16.48;nan;101975.47;10554662;27;20058;-83
2022/03/03 01:23:49;;;;;;;0.00;0.00;;;;;;;16.71;nan;101971.50;10596988;27;20482;-82
2022/03/03 01:28:51;;;;;;;0.00;0.00;;;;;;;17.41;nan;101969.19;10561947;28;20054;-81
2022/03/03 01:33:53;;;;;;;0.00;0.00;;;;;;;16.56;nan;101961.72;10563350;28;20055;-82
2022/03/03 01:38:55;;;;;;;0.00;0.00;;;;;;;16.96;nan;101959.81;10564039;28;20421;-82
2022/03/03 01:43:56;;;;;;;0.00;0.00;;;;;;;16.25;nan;101958.53;10542016;28;20043;-82
2022/03/03 01:48:58;;;;;;;0.00;0.00;;;;;;;14.95;nan;101958.25;10557363;27;20162;-82
2022/03/03 01:54:00;;;;;;;0.00;0.00;;;;;;;16.39;nan;101953.56;10599770;27;20027;-82
2022/03/03 01:59:03;;;;;;;0.00;0.00;;;;;;;16.62;nan;101946.22;10587829;27;20039;-83
2022/03/03 02:04:07;;;;;;;0.00;0.00;;;;;;;15.63;nan;101941.66;10547781;28;20058;-82
2022/03/03 02:09:09;;;;;;;0.00;0.00;;;;;;;16.13;nan;101933.19;10549036;27;20035;-82
2022/03/03 02:14:11;;;;;;;0.00;0.00;;;;;;;15.35;nan;101939.31;10578116;27;20050;-82
2022/03/03 02:19:20;;;;;;;0.00;0.00;;;;;;;15.12;nan;101936.19;10561155;28;20131;-83
2022/03/03 02:24:22;;;;;;;0.10;0.10;;;;;;;14.83;nan;101927.69;10572617;28;20118;-82
2022/03/03 02:29:24;;;;;;;0.00;0.00;;;;;;;15.97;nan;101929.41;10571973;27;20047;-83
2022/03/03 02:34:26;;;;;;;0.00;0.00;;;;;;;16.44;nan;101926.81;10564862;28;20042;-82
2022/03/03 02:39:27;;;;;;;0.00;0.00;;;;;;;14.84;nan;101926.84;10561943;28;20059;-83
2022/03/03 02:44:29;;;;;;;0.00;0.00;;;;;;;14.74;nan;101934.41;10564358;27;20043;-83
2022/03/03 02:49:31;;;;;;;0.00;0.00;;;;;;;14.69;nan;101927.38;10548862;27;20085;-83
2022/03/03 02:54:32;;;;;;;0.00;0.00;;;;;;;14.26;nan;101922.75;10573334;27;20515;-82
2022/03/03 02:59:34;;;;;;;0.00;0.00;;;;;;;14.12;nan;101931.88;10571488;27;20058;-82
2022/03/03 03:04:37;;;;;;;0.00;0.00;;;;;;;15.59;nan;101914.72;10572304;27;20073;-82
2022/03/03 03:09:39;;;;;;;0.08;0.08;;;;;;;16.44;nan;101911.22;10514845;28;20075;-82
2022/03/03 03:14:40;;;;;;;0.10;0.10;;;;;;;14.70;nan;101916.16;10554929;27;20048;-82
2022/03/03 03:19:47;;;;;;;0.00;0.00;;;;;;;15.41;nan;101897.03;10566616;27;20044;-83
2022/03/03 03:24:49;;;;;;;0.00;0.00;;;;;;;15.10;nan;101900.66;10572628;27;20057;-83
2022/03/03 03:29:51;;;;;;;0.00;0.00;;;;;;;15.93;nan;101893.78;10561774;27;20056;-82
2022/03/03 03:34:52;;;;;;;0.00;0.00;;;;;;;16.31;nan;101888.44;10542482;27;20525;-83
2022/03/03 03:39:54;;;;;;;0.00;0.00;;;;;;;16.46;nan;101888.72;10565778;27;20491;-83
2022/03/03 03:44:56;;;;;;;0.10;0.10;;;;;;;15.86;nan;101885.03;10551719;27;20039;-82
2022/03/03 03:50:09;;;;;;;0.52;0.52;;;;;;;15.30;nan;101880.34;10549711;28;20075;-83
2022/03/03 03:55:12;;;;;;;0.00;0.00;;;;;;;14.04;nan;101890.22;10576542;27;20122;-82
2022/03/03 04:00:14;;;;;;;0.00;0.00;;;;;;;16.33;nan;101872.00;10568559;28;20055;-83
2022/03/03 04:05:16;;;;;;;0.00;0.00;;;;;;;15.82;nan;101860.63;10546827;28;20053;-83
2022/03/03 04:10:18;;;;;;;0.00;0.00;;;;;;;15.50;nan;101855.69;10592484;27;20402;-83
2022/03/03 04:15:19;;;;;;;0.05;0.05;;;;;;;15.80;nan;101854.56;10598161;27;20545;-83
2022/03/03 04:20:22;;;;;;;0.10;0.10;;;;;;;15.85;nan;101860.75;10558799;27;20043;-83
2022/03/03 04:25:25;;;;;;;0.00;0.00;;;;;;;15.91;nan;101856.50;10557597;28;20516;-84
2022/03/03 04:30:28;;;;;;;0.00;0.00;;;;;;;15.86;nan;101852.09;10549940;27;20044;-83
2022/03/03 04:35:29;;;;;;;0.00;0.00;;;;;;;16.01;nan;101850.63;10599069;27;20116;-83
2022/03/03 04:40:31;;;;;;;0.10;0.10;;;;;;;15.10;nan;101852.22;10567128;27;20054;-84
2022/03/03 04:45:33;;;;;;;0.00;0.00;;;;;;;14.07;nan;101860.91;10573688;27;20043;-84
2022/03/03 04:50:40;;;;;;;0.00;0.00;;;;;;;14.86;nan;101858.59;10531800;27;20051;-84
2022/03/03 04:55:42;;;;;;;0.00;0.00;;;;;;;13.54;nan;101864.63;10548522;27;20563;-85
2022/03/03 05:00:43;;;;;;;0.00;0.00;;;;;;;14.89;nan;101858.69;10513077;28;20048;-84
2022/03/03 05:05:45;;;;;;;0.00;0.00;;;;;;;14.41;nan;101856.59;10576009;27;20042;-84
2022/03/03 05:10:47;;;;;;;0.00;0.00;;;;;;;15.19;nan;101851.56;10551995;28;20062;-84
2022/03/03 05:15:49;;;;;;;0.10;0.10;;;;;;;15.58;nan;101848.03;10533062;28;20063;-84
2022/03/03 05:20:51;;;;;;;0.90;0.90;;;;;;;15.13;nan;101846.22;10527890;28;20050;-84
2022/03/03 05:25:56;;;;;;;0.00;0.00;;;;;;;15.69;nan;101851.75;10542651;28;20101;-84
2022/03/03 05:31:02;;;;;;;0.10;0.10;;;;;;;15.95;nan;101850.53;10555971;28;20126;-84
2022/03/03 05:36:11;;;;;;;0.00;0.00;;;;;;;15.69;nan;101849.16;10543255;28;20040;-84
2022/03/03 05:41:13;;;;;;;0.00;0.00;;;;;;;15.51;nan;101846.16;10572187;28;20055;-84
2022/03/03 05:46:15;;;;;;;0.00;0.00;;;;;;;13.89;nan;101863.88;10546621;28;20056;-84
2022/03/03 05:51:18;;;;;;;0.00;0.00;;;;;;;15.05;nan;101851.25;10538870;28;20039;-84
2022/03/03 05:56:21;;;;;;;0.15;0.15;;;;;;;14.91;nan;101864.78;10548603;28;20044;-84
2022/03/03 06:01:24;;;;;;;0.00;0.00;;;;;;;14.92;nan;101870.84;10550748;28;20050;-85
2022/03/03 06:06:28;;;;;;;0.00;0.00;;;;;;;14.80;nan;101865.38;10524748;28;20046;-84
2022/03/03 06:11:30;;;;;;;0.00;0.00;;;;;;;14.96;nan;101866.59;10534497;28;20494;-84
2022/03/03 06:16:33;;;;;;;0.00;0.00;;;;;;;14.97;nan;101868.34;10540926;28;20044;-84
2022/03/03 06:21:35;;;;;;;0.00;0.00;;;;;;;15.39;nan;101864.94;10541933;28;20044;-84
2022/03/03 06:26:38;;;;;;;2.05;1.95;;;;;;;11.00;nan;101897.22;10550721;28;20044;-83
2022/03/03 06:31:42;;;;;;;0.00;0.00;;;;;;;14.18;nan;101875.06;10551674;28;20051;-85
2022/03/03 06:36:44;;;;;;;1.85;1.35;;;;;;;15.04;nan;101858.13;10557764;28;20055;-83
2022/03/03 06:41:46;;;;;;;0.05;0.05;;;;;;;16.02;nan;101865.38;10574678;28;20119;-79
2022/03/03 06:46:48;;;;;;;0.52;0.52;;;;;;;16.12;nan;101861.22;10597103;27;20065;-79
2022/03/03 06:51:55;;;;;;;0.10;0.10;;;;;;;12.55;nan;101877.06;10630253;27;20042;-78
2022/03/03 06:56:57;;;;;;;0.10;0.10;;;;;;;13.49;nan;101892.09;10612547;27;20046;-78
2022/03/03 07:02:00;;;;;;;2.15;2.00;;;;;;;14.87;nan;101878.50;10594770;27;20089;-78
2022/03/03 07:07:03;;;;;;;0.00;0.00;;;;;;;13.08;nan;101899.44;10599203;27;20047;-77
2022/03/03 07:12:05;;;;;;;0.40;0.40;;;;;;;14.63;nan;101877.91;10576567;27;20085;-77
2022/03/03 07:17:17;;;;;;;0.30;0.30;;;;;;;14.06;nan;101887.66;10528125;27;20069;-77
2022/03/03 07:22:46;;;;;;;0.00;0.00;;;;;;;15.38;nan;101886.56;10564270;28;20173;-78
2022/03/03 07:27:52;;;;;;;0.10;0.10;;;;;;;17.08;nan;101881.91;10560285;28;20054;-78
2022/03/03 07:32:58;;;;;;;0.35;0.35;;;;;;;14.39;nan;101890.28;10566238;28;20058;-77
2022/03/03 07:38:15;;;;;;;0.75;0.30;;;;;;;14.42;nan;101897.25;10585335;28;20049;-76
2022/03/03 07:43:18;;;;;;;1.85;1.40;;;;;;;15.05;nan;101887.59;10566461;28;20100;-76
2022/03/03 07:48:22;;;;;;;0.00;0.00;;;;;;;16.22;nan;101888.25;10564329;28;20461;-77
2022/03/03 07:53:24;;;;;;;0.00;0.00;;;;;;;15.21;nan;101889.69;10580308;28;20047;-77
2022/03/03 07:58:28;;;;;;;0.35;0.35;;;;;;;16.24;nan;101889.19;10578928;28;20052;-77
2022/03/03 08:03:30;;;;;;;1.80;1.67;;;;;;;17.57;nan;101878.22;10560011;28;20051;-77
2022/03/03 08:08:32;;;;;;;0.10;0.10;;;;;;;17.07;nan;101887.09;10560738;28;20043;-77
2022/03/03 08:13:35;;;;;;;0.00;0.00;;;;;;;17.47;nan;101884.16;10543260;28;20040;-77
2022/03/03 08:18:37;;;;;;;0.10;0.10;;;;;;;17.79;nan;101888.91;10529107;28;20050;-77
2022/03/03 08:23:40;;;;;;;0.00;0.00;;;;;;;18.24;nan;101887.66;10553683;28;20047;-76
2022/03/03 08:28:41;;;;;;;0.50;0.50;;;;;;;17.35;nan;101893.56;10544962;28;20520;-82
2022/03/03 08:33:53;;;;;;;3.63;2.55;;;;;;;17.04;nan;101897.47;10546713;28;20036;-82
2022/03/03 08:39:03;;;;;;;0.20;0.20;;;;;;;19.29;nan;101878.03;10556559;28;20096;-82
2022/03/03 08:44:07;;;;;;;0.00;0.00;;;;;;;20.14;nan;101869.66;10554727;28;20385;-82
2022/03/03 08:49:13;;;;;;;0.00;0.00;;;;;;;20.28;nan;101873.16;10548578;28;20040;-82
2022/03/03 08:54:15;;;;;;;3.40;0.63;;;;;;;20.29;nan;101874.88;10564572;27;20045;-82
2022/03/03 08:59:16;;;;;;;0.00;0.00;;;;;;;20.19;nan;101867.91;10560891;28;20063;-82
2022/03/03 09:04:18;;;;;;;1.17;0.55;;;;;;;20.62;nan;101869.69;10575590;27;20551;-82
2022/03/03 09:09:20;;;;;;;0.40;0.40;;;;;;;19.64;nan;101874.72;10568579;28;20051;-82
2022/03/03 09:14:21;;;;;;;0.20;0.20;;;;;;;18.83;nan;101877.72;10554740;28;20039;-83
2022/03/03 09:19:23;;;;;;;1.13;1.02;;;;;;;19.57;nan;101872.94;10548030;28;20529;-83
2022/03/03 09:24:25;;;;;;;1.02;0.88;;;;;;;20.50;nan;101860.06;10554160;28;20048;-83
2022/03/03 09:29:28;;;;;;;0.38;0.32;;;;;;;19.20;nan;101875.38;10555352;28;20512;-83
2022/03/03 09:34:29;;;;;;;0.70;0.63;;;;;;;20.91;nan;101869.66;10547735;28;20567;-82
2022/03/03 09:39:32;;;;;;;0.00;0.00;;;;;;;20.08;nan;101861.78;10553662;28;20434;-83
2022/03/03 09:44:34;;;;;;;2.30;1.88;;;;;;;21.70;nan;101863.31;10532349;28;20439;-82
2022/03/03 09:49:36;;;;;;;0.32;0.32;;;;;;;22.67;nan;101851.25;10555238;28;20062;-83
2022/03/03 09:54:38;;;;;;;0.85;0.38;;;;;;;22.67;nan;101846.00;10553734;28;20053;-82
2022/03/03 09:59:40;;;;;;;0.40;0.40;;;;;;;22.94;nan;101844.81;10554631;28;20086;-82
2022/03/03 10:04:41;;;;;;;1.25;0.80;;;;;;;23.10;nan;101850.81;10554187;28;20047;-82
2022/03/03 10:09:59;;;;;;;4.13;2.35;;;;;;;21.52;nan;101852.00;10573814;28;20051;-83
2022/03/03 10:15:11;;;;;;;0.32;0.10;;;;;;;23.31;nan;101837.47;10580721;28;20067;-82
2022/03/03 10:20:13;;;;;;;0.05;0.05;;;;;;;23.51;nan;101839.81;10562330;28;20056;-82
2022/03/03 10:25:46;;;;;;;0.57;0.57;;;;;;;22.59;nan;101843.44;10579467;28;20042;-83
2022/03/03 10:31:01;;;;;;;1.20;0.77;;;;;;;22.35;nan;101847.13;10560936;28;20863;-83
2022/03/03 10:36:21;;;;;;;1.75;0.55;;;;;;;22.80;nan;101842.38;10545071;28;20040;-83
2022/03/03 10:41:44;;;;;;;1.85;1.25;;;;;;;23.87;nan;101843.69;10560713;28;20502;-83
2022/03/03 10:47:04;;;;;;;1.17;0.85;;;;;;;23.24;nan;101841.91;10561525;28;20101;-83
2022/03/03 10:52:14;;;;;;;2.10;1.67;;;;;;;22.41;nan;101841.84;10562329;27;20038;-79
2022/03/03 10:57:41;;;;;;;2.05;1.90;;;;;;;22.69;nan;101849.47;10552964;28;20188;-79
2022/03/03 11:02:49;;;;;;;2.28;1.52;;;;;;;23.04;nan;101842.09;10564690;28;20051;-78
2022/03/03 11:08:01;;;;;;;0.80;0.68;;;;;;;22.93;nan;101839.59;10565734;28;20044;-78
2022/03/03 11:13:04;;;;;;;0.50;0.03;;;;;;;25.14;nan;101828.34;10563647;28;20131;-79
2022/03/03 11:18:06;;;;;;;1.48;1.02;;;;;;;23.53;nan;101827.50;10564328;28;20476;-77
2022/03/03 11:23:08;;;;;;;5.18;2.65;;;;;;;24.28;nan;101822.00;10563792;28;20055;-78
2022/03/03 11:28:15;;;;;;;3.08;1.40;;;;;;;24.20;nan;101825.63;10565497;28;20039;-78
2022/03/03 11:33:30;;;;;;;3.33;2.28;;;;;;;26.68;nan;101819.50;10547588;28;20046;-78
2022/03/03 11:39:00;;;;;;;0.45;0.40;;;;;;;24.82;nan;101819.31;10533841;28;20048;-77
2022/03/03 11:44:08;;;;;;;0.00;0.00;;;;;;;25.64;nan;101814.13;10582689;28;20138;-77
2022/03/03 11:49:11;;;;;;;4.22;0.52;;;;;;;26.28;nan;101806.44;10582138;28;20486;-78
2022/03/03 11:54:13;;;;;;;0.90;0.65;;;;;;;24.99;nan;101816.34;10569175;27;20039;-77
2022/03/03 11:59:15;;;;;;;1.63;1.20;;;;;;;25.14;nan;101812.53;10546068;28;20051;-76
2022/03/03 12:04:20;;;;;;;2.58;0.65;;;;;;;25.30;nan;101802.50;10545007;28;20486;-77
2022/03/03 12:09:30;;;;;;;0.10;0.10;;;;;;;25.22;nan;101796.53;10563045;28;20048;-78
2022/03/03 12:14:35;;;;;;;0.50;0.43;;;;;;;25.28;nan;101804.31;10580539;28;20027;-77
2022/03/03 12:19:38;;;;;;;0.40;0.22;;;;;;;26.12;nan;101792.78;10561683;28;20549;-77
2022/03/03 12:24:41;;;;;;;2.28;1.88;;;;;;;24.30;nan;101794.78;10563284;28;20049;-77
2022/03/03 12:29:42;;;;;;;1.90;1.15;;;;;;;24.58;nan;101789.00;10563045;28;20482;-77
2022/03/03 12:35:20;;;;;;;1.02;0.45;;;;;;;25.83;nan;101776.75;10566808;28;20455;-78
2022/03/03 12:40:25;;;;;;;2.40;1.27;;;;;;;24.13;nan;101786.28;10561487;28;20065;-80
2022/03/03 12:45:30;;;;;;;1.02;0.40;;;;;;;25.50;nan;101761.69;10545121;28;20039;-78
2022/03/03 12:50:35;;;;;;;2.17;1.63;;;;;;;22.63;nan;101776.00;10561730;28;20043;-79
2022/03/03 12:55:44;;;;;;;2.17;1.65;;;;;;;24.18;nan;101769.53;10570954;27;20528;-76
2022/03/03 13:00:47;;;;;;;3.60;1.83;;;;;;;23.94;nan;101759.41;10557281;28;20072;-88
2022/03/03 13:05:51;;;;;;;1.45;1.10;;;;;;;24.98;nan;101753.13;10553565;28;20059;-87
2022/03/03 13:11:04;;;;;;;1.45;0.55;;;;;;;24.59;nan;101751.22;10555254;28;20069;-86
2022/03/03 13:16:15;;;;;;;2.55;1.45;;;;;;;24.42;nan;101748.03;10555521;28;20067;-86
2022/03/03 13:21:19;;;;;;;2.95;1.55;;;;;;;24.05;nan;101734.66;10554974;28;20058;-87
2022/03/03 13:26:27;;;;;;;2.20;1.38;;;;;;;25.33;nan;101725.09;10556418;28;20406;-87
2022/03/03 13:31:35;;;;;;;0.22;0.22;;;;;;;25.71;nan;101719.84;10554786;28;20131;-85
2022/03/03 13:36:42;;;;;;;2.90;1.52;;;;;;;23.04;nan;101724.72;10573656;28;20040;-85
2022/03/03 13:41:44;;;;;;;1.17;1.08;;;;;;;23.88;nan;101734.03;10537851;28;20055;-80
2022/03/03 13:47:02;;;;;;;1.85;0.80;;;;;;;23.94;nan;101723.41;10562720;28;20042;-80
2022/03/03 13:52:09;;;;;;;4.82;1.30;;;;;;;23.94;nan;101733.94;10543232;28;20410;-79
2022/03/03 13:57:41;;;;;;;1.35;1.25;;;;;;;24.90;nan;101720.78;10556491;28;20035;-79
2022/03/03 14:02:52;;;;;;;0.47;0.47;;;;;;;23.93;nan;101721.72;10552831;28;20105;-80
2022/03/03 14:07:54;;;;;;;3.42;1.23;;;;;;;24.33;nan;101720.97;10560058;28;20082;-80
2022/03/03 14:13:04;;;;;;;1.85;1.10;;;;;;;23.76;nan;101725.44;10552779;27;20058;-80
2022/03/03 14:18:06;;;;;;;0.40;0.40;;;;;;;24.16;nan;101728.34;10563325;27;20040;-80
2022/03/03 14:23:08;;;;;;;0.00;0.00;;;;;;;24.49;nan;101726.84;10563670;27;20074;-80
2022/03/03 14:28:09;;;;;;;0.15;0.15;;;;;;;23.50;nan;101730.22;10556596;28;20046;-80
2022/03/03 14:33:11;;;;;;;1.33;1.13;;;;;;;23.67;nan;101725.59;10543697;27;20446;-80
2022/03/03 14:38:14;;;;;;;0.32;0.32;;;;;;;23.48;nan;101722.38;10555382;28;20040;-80
2022/03/03 14:43:18;;;;;;;3.35;1.83;;;;;;;24.16;nan;101723.06;10548412;28;20051;-80
2022/03/03 14:48:20;;;;;;;0.90;0.43;;;;;;;23.65;nan;101716.84;10574888;27;20054;-80
2022/03/03 14:53:21;;;;;;;0.30;0.22;;;;;;;23.28;nan;101715.66;10551282;27;20089;-79
2022/03/03 14:58:23;;;;;;;0.75;0.73;;;;;;;23.51;nan;101718.81;10554298;27;20410;-80
2022/03/03 15:03:25;;;;;;;1.38;1.27;;;;;;;23.79;nan;101708.75;10576811;27;20047;-80
2022/03/03 15:08:29;;;;;;;0.45;0.45;;;;;;;23.92;nan;101699.72;10544514;27;20043;-79
2022/03/03 15:13:31;;;;;;;1.75;1.10;;;;;;;;;;10557300;27;20509;-80
2022/03/03 15:18:33;;;;;;;1.67;0.80;;;;;;;22.30;nan;101704.56;10551603;27;20130;-80
2022/03/03 15:23:35;;;;;;;1.50;0.88;;;;;;;22.72;nan;101697.09;10558068;27;20043;-79
2022/03/03 15:28:37;;;;;;;1.05;0.47;;;;;;;22.87;nan;101703.03;10569675;27;20127;-80
2022/03/03 15:38:59;;;;;;;0.47;0.45;;;;;;;22.41;nan;101700.06;10564978;27;20050;-80
2022/03/03 15:44:01;;;;;;;1.67;1.15;;;;;;;22.12;nan;101701.22;10557005;27;20040;-79
2022/03/03 15:49:03;;;;;;;1.00;0.52;;;;;;;22.65;nan;101713.81;10584308;27;20042;-80
2022/03/03 15:54:05;;;;;;;0.98;0.95;;;;;;;23.24;nan;101699.94;10557924;27;20045;-79
2022/03/03 15:59:09;;;;;;;1.55;1.25;;;;;;;23.61;nan;101704.66;10541207;28;20161;-78
2022/03/03 16:04:11;;;;;;;0.20;0.00;;;;;;;23.05;nan;101705.41;10567054;27;20085;-80
2022/03/03 16:09:13;;;;;;;0.13;0.13;;;;;;;22.57;nan;101705.16;10552525;27;20048;-79
2022/03/03 16:14:16;;;;;;;2.05;1.73;;;;;;;21.39;nan;101701.75;10542964;27;20039;-79
2022/03/03 16:19:18;;;;;;;0.00;0.00;;;;;;;22.33;nan;101709.75;10561876;27;20067;-79
2022/03/03 16:24:20;;;;;;;0.00;0.00;;;;;;;22.59;nan;101716.53;10565286;27;20402;-80
2022/03/03 16:29:31;;;;;;;0.00;0.00;;;;;;;23.00;nan;101714.28;10546936;28;20535;-79
2022/03/03 16:34:41;;;;;;;0.00;0.00;;;;;;;23.18;nan;101707.94;10559815;28;20044;-79
2022/03/03 16:39:45;;;;;;;0.00;0.00;;;;;;;21.82;nan;101718.97;10564418;27;20058;-79
2022/03/03 16:44:48;;;;;;;8.93;3.30;;;;;;;22.68;nan;101716.38;10547584;27;20066;-79
2022/03/03 16:49:50;;;;;;;0.00;0.00;;;;;;;22.47;nan;101723.63;10534777;28;20146;-78
2022/03/03 16:54:55;;;;;;;0.00;0.00;;;;;;;21.20;nan;101740.31;10561091;27;20047;-79
2022/03/03 17:00:00;;;;;;;0.00;0.00;;;;;;;20.89;nan;101745.69;10544289;28;20482;-79
2022/03/03 17:05:01;;;;;;;1.55;0.52;;;;;;;20.70;nan;101743.97;10557482;27;20050;-79
2022/03/03 17:10:03;;;;;;;0.40;0.20;;;;;;;20.64;nan;101744.00;10530980;27;20058;-79
2022/03/03 17:15:06;;;;;;;0.00;0.00;;;;;;;20.99;nan;101741.28;10548090;27;20775;-79
2022/03/03 17:20:10;;;;;;;0.63;0.63;;;;;;;20.13;nan;101751.03;10531003;28;20510;-79
2022/03/03 17:25:11;;;;;;;0.20;0.20;;;;;;;20.19;nan;101760.63;10528686;28;20050;-79
2022/03/03 17:30:13;;;;;;;0.00;0.00;;;;;;;19.71;nan;101749.25;10547365;28;20126;-79
2022/03/03 17:35:15;;;;;;;0.30;0.30;;;;;;;19.60;nan;101765.78;10549817;28;20120;-79
2022/03/03 17:40:21;;;;;;;0.20;0.20;;;;;;;19.75;nan;101764.06;10550693;28;20581;-78
2022/03/03 17:45:23;;;;;;;0.00;0.00;;;;;;;20.41;nan;101773.69;10555492;28;20044;-79
2022/03/03 17:50:25;;;;;;;0.00;0.00;;;;;;;20.21;nan;101777.22;10550080;28;20442;-78
2022/03/03 17:55:27;;;;;;;0.00;0.00;;;;;;;19.18;nan;101790.91;10572920;28;20419;-78
2022/03/03 18:00:28;;;;;;;0.00;0.00;;;;;;;19.68;nan;101788.47;10542348;28;20044;-78
2022/03/03 18:05:30;;;;;;;0.10;0.10;;;;;;;18.91;nan;101800.31;10556618;28;20028;-79
2022/03/03 18:10:32;;;;;;;0.00;0.00;;;;;;;21.11;nan;101795.38;10563399;28;20047;-78
2022/03/03 18:15:35;;;;;;;0.00;0.00;;;;;;;20.40;nan;101808.59;10520286;28;20138;-77
2022/03/03 18:20:36;;;;;;;0.10;0.10;;;;;;;19.73;nan;101812.88;10545675;28;20058;-78
2022/03/03 18:25:38;;;;;;;0.38;0.38;;;;;;;19.25;nan;101829.25;10545159;28;20035;-78
2022/03/03 18:30:43;;;;;;;2.20;1.42;;;;;;;19.75;nan;101827.69;10564655;27;20058;-78
2022/03/03 18:35:49;;;;;;;0.00;0.00;;;;;;;20.29;nan;101819.91;10576196;27;20358;-77
2022/03/03 18:40:53;;;;;;;0.20;0.20;;;;;;;19.22;nan;101834.47;10557302;27;20035;-78
2022/03/03 18:45:54;;;;;;;0.00;0.00;;;;;;;20.72;nan;101820.78;10560397;27;20481;-77
2022/03/03 18:50:57;;;;;;;0.80;0.80;;;;;;;20.45;nan;101827.78;10547241;27;20105;-77
2022/03/03 18:55:59;;;;;;;0.00;0.00;;;;;;;19.89;nan;101838.22;10600945;27;20043;-77
2022/03/03 19:01:00;;;;;;;0.00;0.00;;;;;;;18.23;nan;101841.56;10571990;27;20062;-77
2022/03/03 19:06:06;;;;;;;0.20;0.10;;;;;;;18.19;nan;101842.44;10567731;28;20048;-78
2022/03/03 19:11:08;;;;;;;0.00;0.00;;;;;;;18.48;nan;101849.63;10563015;28;20096;-78
2022/03/03 19:16:12;;;;;;;0.00;0.00;;;;;;;19.59;nan;101849.41;10568280;28;20032;-78
2022/03/03 19:21:14;;;;;;;0.00;0.00;;;;;;;19.78;nan;101837.25;10563965;28;20067;-77
2022/03/03 19:26:17;;;;;;;0.00;0.00;;;;;;;19.30;nan;101847.56;10552093;28;20083;-78
2022/03/03 19:31:19;;;;;;;0.00;0.00;;;;;;;17.69;nan;101857.50;10540077;28;20046;-77
2022/03/03 19:36:20;;;;;;;0.00;0.00;;;;;;;17.65;nan;101860.94;10528846;28;20150;-77
2022/03/03 19:41:22;;;;;;;0.00;0.00;;;;;;;17.41;nan;101857.16;10537109;28;20047;-77
2022/03/03 19:46:24;;;;;;;0.00;0.00;;;;;;;17.70;nan;101861.88;10566752;27;20055;-77
2022/03/03 19:51:26;;;;;;;0.08;0.08;;;;;;;17.81;nan;101866.34;10566295;27;20051;-77
2022/03/03 19:56:28;;;;;;;0.00;0.00;;;;;;;17.00;nan;101862.72;10535183;28;20047;-77
2022/03/03 20:01:30;;;;;;;0.00;0.00;;;;;;;16.86;nan;101861.59;10549861;28;20177;-77
2022/03/03 20:06:32;;;;;;;0.00;0.00;;;;;;;16.31;nan;101873.69;10541499;28;20643;-77
2022/03/03 20:11:34;;;;;;;0.00;0.00;;;;;;;17.91;nan;101868.16;10546230;27;20066;-78
2022/03/03 20:16:37;;;;;;;0.20;0.20;;;;;;;16.59;nan;101883.69;10564552;28;20038;-77
2022/03/03 20:21:39;;;;;;;0.00;0.00;;;;;;;15.98;nan;101887.84;10517201;28;20040;-77
2022/03/03 20:26:41;;;;;;;0.00;0.00;;;;;;;15.99;nan;101891.31;10551844;28;20067;-77
2022/03/03 20:31:42;;;;;;;0.00;0.00;;;;;;;15.66;nan;101902.75;10548371;28;20040;-77
2022/03/03 20:36:44;;;;;;;0.00;0.00;;;;;;;15.70;nan;101899.38;10527952;28;20098;-77
2022/03/03 20:41:46;;;;;;;0.15;0.15;;;;;;;15.64;nan;101904.44;10556217;28;20047;-77
2022/03/03 20:46:48;;;;;;;0.10;0.10;;;;;;;15.95;nan;101905.09;10557344;28;20035;-77
2022/03/03 20:51:51;;;;;;;0.13;0.13;;;;;;;15.92;nan;101910.22;10549494;28;20154;-77
2022/03/03 20:56:53;;;;;;;0.30;0.30;;;;;;;15.76;nan;101907.28;10558558;27;20554;-77
2022/03/03 21:01:57;;;;;;;0.00;0.00;;;;;;;16.59;nan;101917.53;10552586;27;20052;-77
2022/03/03 21:07:00;;;;;;;0.00;0.00;;;;;;;16.33;nan;101918.81;10500293;28;20075;-76
2022/03/03 21:12:01;;;;;;;0.08;0.08;;;;;;;15.77;nan;101915.97;10549565;28;20418;-77
2022/03/03 21:17:04;;;;;;;0.00;0.00;;;;;;;16.27;nan;101918.72;10557550;28;20068;-77
2022/03/03 21:22:06;;;;;;;0.00;0.00;;;;;;;16.13;nan;101925.38;10551835;28;20040;-77
2022/03/03 21:27:08;;;;;;;0.65;0.30;;;;;;;16.45;nan;101920.75;10546167;28;20062;-76
2022/03/03 21:32:09;;;;;;;0.05;0.05;;;;;;;15.33;nan;101929.72;10545749;28;20066;-76
2022/03/03 21:37:11;;;;;;;1.23;1.13;;;;;;;14.94;nan;101921.06;10538404;28;20047;-76
2022/03/03 21:42:13;;;;;;;0.00;0.00;;;;;;;15.43;nan;101918.72;10547058;28;20066;-76
2022/03/03 21:47:15;;;;;;;1.10;1.08;;;;;;;15.54;nan;101925.00;10538195;28;20032;-77
2022/03/03 21:52:16;;;;;;;1.92;1.55;;;;;;;14.96;nan;101927.19;10549969;28;20090;-77
2022/03/03 21:57:18;;;;;;;0.00;0.00;;;;;;;15.46;nan;101921.38;10557320;28;20064;-77
2022/03/03 22:02:20;;;;;;;0.35;0.35;;;;;;;14.73;nan;101927.50;10534800;28;20055;-77
2022/03/03 22:07:23;;;;;;;0.80;0.43;;;;;;;14.40;nan;101927.47;10559673;28;20039;-77
2022/03/03 22:12:25;;;;;;;1.08;1.02;;;;;;;14.96;nan;101929.78;10583465;28;20490;-77
2022/03/03 22:17:26;;;;;;;0.88;0.32;;;;;;;15.89;nan;101923.19;10565295;28;20502;-77
2022/03/03 22:22:28;;;;;;;0.20;0.20;;;;;;;15.38;nan;101928.09;10582688;28;20052;-77
2022/03/03 22:27:30;;;;;;;0.00;0.00;;;;;;;14.56;nan;101944.28;10572679;28;20048;-77
2022/03/03 22:32:31;;;;;;;0.00;0.00;;;;;;;14.94;nan;101941.81;10566686;27;20510;-78
2022/03/03 22:37:33;;;;;;;0.20;0.20;;;;;;;16.99;nan;101930.34;10566659;27;20059;-77
2022/03/03 22:42:35;;;;;;;0.38;0.30;;;;;;;16.72;nan;101935.09;10577514;27;20050;-78
2022/03/03 22:47:37;;;;;;;0.22;0.22;;;;;;;15.13;nan;101937.94;10569083;27;20036;-77
2022/03/03 22:52:40;;;;;;;0.13;0.13;;;;;;;15.48;nan;101942.22;10547819;27;20073;-77
2022/03/03 22:57:42;;;;;;;0.98;0.90;;;;;;;14.84;nan;101945.91;10575537;27;20071;-77
2022/03/03 23:08:05;;;;;;;0.00;0.00;;;;;;;16.38;nan;101944.91;10566787;27;20090;-77
2022/03/03 23:13:07;;;;;;;0.00;0.00;;;;;;;15.22;nan;101955.44;10568284;27;20048;-78
2022/03/03 23:18:09;;;;;;;0.00;0.00;;;;;;;14.66;nan;101964.47;10540749;27;20050;-78
2022/03/03 23:23:11;;;;;;;0.00;0.00;;;;;;;15.63;nan;101944.25;10580923;27;20482;-77
2022/03/03 23:28:13;;;;;;;0.00;0.00;;;;;;;15.86;nan;101945.66;10560067;27;20500;-77
2022/03/03 23:33:15;;;;;;;0.00;0.00;;;;;;;15.34;nan;101952.28;10565341;27;20058;-77
2022/03/03 23:38:26;;;;;;;0.05;0.05;;;;;;;15.09;nan;101954.28;10597106;27;20509;-78
2022/03/03 23:43:30;;;;;;;0.00;0.00;;;;;;;15.08;nan;101960.31;10547113;27;20089;-77
2022/03/03 23:48:32;;;;;;;0.00;0.00;;;;;;;14.78;nan;101953.50;10551647;27;20141;-77
2022/03/03 23:53:37;;;;;;;0.00;0.00;;;;;;;16.06;nan;101950.34;10556960;28;20131;-77
2022/03/03 23:58:38;;;;;;;0.00;0.00;;;;;;;17.41;nan;101945.75;10573159;27;20043;-78
